sensor_id;sensor_type;location;lat;lon;timestamp;pressure;altitude;pressure_sealevel;temperature;humidity
66524;BME280;53350;52.210;5.160;2022-09-09T00:02:10;100742.66;;;18.30;69.78
66524;BME280;53350;52.210;5.160;2022-09-09T00:04:43;100742.59;;;18.31;69.64
66524;BME280;53350;52.210;5.160;2022-09-09T00:07:13;100739.06;;;18.32;69.82
66524;BME280;53350;52.210;5.160;2022-09-09T00:09:44;100744.28;;;18.32;70.08
66524;BME280;53350;52.210;5.160;2022-09-09T00:12:15;100738.13;;;18.33;69.68
66524;BME280;53350;52.210;5.160;2022-09-09T00:14:45;100735.38;;;18.36;69.94
66524;BME280;53350;52.210;5.160;2022-09-09T00:17:14;100734.53;;;18.36;69.85
66524;BME280;53350;52.210;5.160;2022-09-09T00:19:44;100740.75;;;18.33;69.87
66524;BME280;53350;52.210;5.160;2022-09-09T00:22:16;100744.38;;;18.31;69.79
66524;BME280;53350;52.210;5.160;2022-09-09T00:24:43;100736.59;;;18.29;69.96
66524;BME280;53350;52.210;5.160;2022-09-09T00:27:13;100733.97;;;18.29;69.86
66524;BME280;53350;52.210;5.160;2022-09-09T00:29:44;100726.94;;;18.31;69.84
66524;BME280;53350;52.210;5.160;2022-09-09T00:32:13;100729.31;;;18.36;69.87
66524;BME280;53350;52.210;5.160;2022-09-09T00:34:39;100728.34;;;18.38;69.58
66524;BME280;53350;52.210;5.160;2022-09-09T00:37:09;100732.72;;;18.38;69.51
66524;BME280;53350;52.210;5.160;2022-09-09T00:39:37;100729.25;;;18.37;69.62
66524;BME280;53350;52.210;5.160;2022-09-09T00:42:09;100739.19;;;18.29;70.13
66524;BME280;53350;52.210;5.160;2022-09-09T00:44:38;100732.31;;;18.28;69.65
66524;BME280;53350;52.210;5.160;2022-09-09T00:47:19;100737.66;;;18.25;69.54
66524;BME280;53350;52.210;5.160;2022-09-09T00:49:56;100736.81;;;18.24;69.93
66524;BME280;53350;52.210;5.160;2022-09-09T00:52:27;100737.94;;;18.19;69.67
66524;BME280;53350;52.210;5.160;2022-09-09T00:54:57;100733.72;;;18.16;69.78
66524;BME280;53350;52.210;5.160;2022-09-09T00:57:28;100738.13;;;18.14;69.87
66524;BME280;53350;52.210;5.160;2022-09-09T00:59:59;100729.50;;;18.14;69.77
66524;BME280;53350;52.210;5.160;2022-09-09T01:02:33;100735.53;;;18.14;69.79
66524;BME280;53350;52.210;5.160;2022-09-09T01:05:07;100736.41;;;18.15;69.70
66524;BME280;53350;52.210;5.160;2022-09-09T01:07:36;100732.84;;;18.16;69.76
66524;BME280;53350;52.210;5.160;2022-09-09T01:10:03;100732.03;;;18.15;69.69
66524;BME280;53350;52.210;5.160;2022-09-09T01:12:35;100725.09;;;18.14;69.78
66524;BME280;53350;52.210;5.160;2022-09-09T01:15:08;100731.28;;;18.12;69.79
66524;BME280;53350;52.210;5.160;2022-09-09T01:17:44;100727.09;;;18.09;69.84
66524;BME280;53350;52.210;5.160;2022-09-09T01:20:14;100731.66;;;18.04;69.69
66524;BME280;53350;52.210;5.160;2022-09-09T01:22:44;100730.03;;;18.01;70.22
66524;BME280;53350;52.210;5.160;2022-09-09T01:28:00;100723.66;;;17.88;70.11
66524;BME280;53350;52.210;5.160;2022-09-09T01:30:28;100723.72;;;17.86;70.24
66524;BME280;53350;52.210;5.160;2022-09-09T01:32:55;100715.00;;;17.87;70.59
66524;BME280;53350;52.210;5.160;2022-09-09T01:35:29;100712.47;;;17.86;70.36
66524;BME280;53350;52.210;5.160;2022-09-09T01:37:57;100712.53;;;17.84;70.12
66524;BME280;53350;52.210;5.160;2022-09-09T01:40:23;100708.31;;;17.82;70.47
66524;BME280;53350;52.210;5.160;2022-09-09T01:42:50;100709.22;;;17.81;70.41
66524;BME280;53350;52.210;5.160;2022-09-09T01:45:18;100718.00;;;17.78;70.04
66524;BME280;53350;52.210;5.160;2022-09-09T01:47:45;100710.31;;;17.75;70.00
66524;BME280;53350;52.210;5.160;2022-09-09T01:50:12;100710.59;;;17.69;70.40
66524;BME280;53350;52.210;5.160;2022-09-09T01:52:40;100708.22;;;17.64;70.26
66524;BME280;53350;52.210;5.160;2022-09-09T01:55:07;100699.66;;;17.61;70.64
66524;BME280;53350;52.210;5.160;2022-09-09T01:57:36;100699.09;;;17.54;70.67
66524;BME280;53350;52.210;5.160;2022-09-09T02:00:06;100710.56;;;17.50;70.69
66524;BME280;53350;52.210;5.160;2022-09-09T02:02:36;100702.16;;;17.43;70.73
66524;BME280;53350;52.210;5.160;2022-09-09T02:05:07;100700.59;;;17.39;70.98
66524;BME280;53350;52.210;5.160;2022-09-09T02:07:38;100707.84;;;17.32;71.04
66524;BME280;53350;52.210;5.160;2022-09-09T02:10:08;100705.47;;;17.26;70.98
66524;BME280;53350;52.210;5.160;2022-09-09T02:12:35;100704.66;;;17.26;71.07
66524;BME280;53350;52.210;5.160;2022-09-09T02:15:03;100699.50;;;17.24;71.08
66524;BME280;53350;52.210;5.160;2022-09-09T02:17:31;100700.34;;;17.25;71.50
66524;BME280;53350;52.210;5.160;2022-09-09T02:20:02;100700.41;;;17.23;71.22
66524;BME280;53350;52.210;5.160;2022-09-09T02:22:29;100696.97;;;17.23;71.59
66524;BME280;53350;52.210;5.160;2022-09-09T02:24:59;100690.84;;;17.24;71.52
66524;BME280;53350;52.210;5.160;2022-09-09T02:27:26;100695.13;;;17.25;71.57
66524;BME280;53350;52.210;5.160;2022-09-09T02:29:53;100694.38;;;17.23;71.28
66524;BME280;53350;52.210;5.160;2022-09-09T02:32:22;100700.41;;;17.23;71.53
66524;BME280;53350;52.210;5.160;2022-09-09T02:34:49;100697.09;;;17.19;71.49
66524;BME280;53350;52.210;5.160;2022-09-09T02:37:20;100692.81;;;17.18;71.42
66524;BME280;53350;52.210;5.160;2022-09-09T02:39:48;100697.03;;;17.21;71.45
66524;BME280;53350;52.210;5.160;2022-09-09T02:42:14;100697.94;;;17.20;71.31
66524;BME280;53350;52.210;5.160;2022-09-09T02:44:41;100699.84;;;17.16;71.36
66524;BME280;53350;52.210;5.160;2022-09-09T02:47:11;100687.06;;;17.10;71.20
66524;BME280;53350;52.210;5.160;2022-09-09T02:49:44;100692.34;;;17.09;71.22
66524;BME280;53350;52.210;5.160;2022-09-09T02:52:16;100689.72;;;17.09;71.55
66524;BME280;53350;52.210;5.160;2022-09-09T02:54:46;100687.94;;;17.11;71.97
66524;BME280;53350;52.210;5.160;2022-09-09T02:57:15;100693.06;;;17.12;71.57
66524;BME280;53350;52.210;5.160;2022-09-09T02:59:43;100689.59;;;17.12;71.85
66524;BME280;53350;52.210;5.160;2022-09-09T03:02:10;100690.59;;;17.09;71.73
66524;BME280;53350;52.210;5.160;2022-09-09T03:04:37;100686.28;;;17.08;71.66
66524;BME280;53350;52.210;5.160;2022-09-09T03:07:04;100688.13;;;17.06;71.80
66524;BME280;53350;52.210;5.160;2022-09-09T03:09:30;100690.75;;;17.04;71.85
66524;BME280;53350;52.210;5.160;2022-09-09T03:11:58;100683.03;;;17.03;72.01
66524;BME280;53350;52.210;5.160;2022-09-09T03:14:25;100682.19;;;17.02;71.73
66524;BME280;53350;52.210;5.160;2022-09-09T03:16:51;100677.03;;;17.01;71.83
66524;BME280;53350;52.210;5.160;2022-09-09T03:19:17;100674.59;;;16.98;71.88
66524;BME280;53350;52.210;5.160;2022-09-09T03:21:44;100674.72;;;16.95;72.11
66524;BME280;53350;52.210;5.160;2022-09-09T03:24:10;100673.84;;;16.94;72.29
66524;BME280;53350;52.210;5.160;2022-09-09T03:26:37;100668.78;;;16.91;71.96
66524;BME280;53350;52.210;5.160;2022-09-09T03:29:07;100675.75;;;16.91;72.26
66524;BME280;53350;52.210;5.160;2022-09-09T03:31:33;100681.00;;;16.89;72.09
66524;BME280;53350;52.210;5.160;2022-09-09T03:34:01;100682.00;;;16.85;72.55
66524;BME280;53350;52.210;5.160;2022-09-09T03:36:27;100676.88;;;16.83;72.68
66524;BME280;53350;52.210;5.160;2022-09-09T03:38:54;100681.34;;;16.80;72.53
66524;BME280;53350;52.210;5.160;2022-09-09T03:41:21;100679.72;;;16.77;72.44
66524;BME280;53350;52.210;5.160;2022-09-09T03:43:48;100682.41;;;16.76;72.77
66524;BME280;53350;52.210;5.160;2022-09-09T03:46:16;100670.28;;;16.75;72.47
66524;BME280;53350;52.210;5.160;2022-09-09T03:48:43;100669.50;;;16.73;72.68
66524;BME280;53350;52.210;5.160;2022-09-09T03:51:09;100676.59;;;16.69;72.66
66524;BME280;53350;52.210;5.160;2022-09-09T03:53:35;100668.84;;;16.67;72.93
66524;BME280;53350;52.210;5.160;2022-09-09T03:56:03;100669.69;;;16.68;73.06
66524;BME280;53350;52.210;5.160;2022-09-09T03:58:31;100680.09;;;16.68;72.86
66524;BME280;53350;52.210;5.160;2022-09-09T04:00:58;100673.22;;;16.67;72.78
66524;BME280;53350;52.210;5.160;2022-09-09T04:03:27;100680.09;;;16.68;73.02
66524;BME280;53350;52.210;5.160;2022-09-09T04:05:53;100678.41;;;16.67;72.75
66524;BME280;53350;52.210;5.160;2022-09-09T04:08:20;100680.16;;;16.66;72.71
66524;BME280;53350;52.210;5.160;2022-09-09T04:10:47;100680.34;;;16.62;72.79
66524;BME280;53350;52.210;5.160;2022-09-09T04:13:14;100670.13;;;16.57;72.77
66524;BME280;53350;52.210;5.160;2022-09-09T04:15:42;100667.53;;;16.57;72.89
66524;BME280;53350;52.210;5.160;2022-09-09T04:18:08;100666.56;;;16.60;73.14
66524;BME280;53350;52.210;5.160;2022-09-09T04:20:36;100664.19;;;16.54;73.50
66524;BME280;53350;52.210;5.160;2022-09-09T04:23:02;100670.41;;;16.49;73.06
66524;BME280;53350;52.210;5.160;2022-09-09T04:25:29;100664.56;;;16.44;72.85
66524;BME280;53350;52.210;5.160;2022-09-09T04:27:55;100649.75;;;16.46;73.65
66524;BME280;53350;52.210;5.160;2022-09-09T04:30:22;100660.94;;;16.48;73.15
66524;BME280;53350;52.210;5.160;2022-09-09T04:32:49;100647.81;;;16.51;73.61
66524;BME280;53350;52.210;5.160;2022-09-09T04:35:15;100647.75;;;16.53;73.00
66524;BME280;53350;52.210;5.160;2022-09-09T04:37:43;100646.84;;;16.54;73.01
66524;BME280;53350;52.210;5.160;2022-09-09T04:40:09;100638.31;;;16.50;72.75
66524;BME280;53350;52.210;5.160;2022-09-09T04:42:36;100645.16;;;16.53;73.45
66524;BME280;53350;52.210;5.160;2022-09-09T04:45:02;100646.94;;;16.51;73.26
66524;BME280;53350;52.210;5.160;2022-09-09T04:47:29;100641.94;;;16.46;73.49
66524;BME280;53350;52.210;5.160;2022-09-09T04:49:55;100648.00;;;16.47;73.18
66524;BME280;53350;52.210;5.160;2022-09-09T04:52:21;100638.50;;;16.46;73.32
66524;BME280;53350;52.210;5.160;2022-09-09T04:54:49;100635.97;;;16.44;73.24
66524;BME280;53350;52.210;5.160;2022-09-09T04:57:15;100635.13;;;16.44;73.63
66524;BME280;53350;52.210;5.160;2022-09-09T04:59:42;100646.44;;;16.43;73.16
66524;BME280;53350;52.210;5.160;2022-09-09T05:02:09;100644.66;;;16.43;73.14
66524;BME280;53350;52.210;5.160;2022-09-09T05:04:35;100645.69;;;16.39;73.45
66524;BME280;53350;52.210;5.160;2022-09-09T05:07:02;100640.56;;;16.38;73.24
66524;BME280;53350;52.210;5.160;2022-09-09T05:09:28;100637.00;;;16.40;73.79
66524;BME280;53350;52.210;5.160;2022-09-09T05:11:56;100633.69;;;16.37;73.83
66524;BME280;53350;52.210;5.160;2022-09-09T05:14:23;100641.38;;;16.40;73.47
66524;BME280;53350;52.210;5.160;2022-09-09T05:16:49;100637.91;;;16.39;73.75
66524;BME280;53350;52.210;5.160;2022-09-09T05:19:16;100630.97;;;16.40;73.53
66524;BME280;53350;52.210;5.160;2022-09-09T05:21:44;100632.63;;;16.41;73.88
66524;BME280;53350;52.210;5.160;2022-09-09T05:24:10;100626.66;;;16.39;73.71
66524;BME280;53350;52.210;5.160;2022-09-09T05:26:36;100631.88;;;16.39;73.67
66524;BME280;53350;52.210;5.160;2022-09-09T05:29:04;100639.72;;;16.37;73.84
66524;BME280;53350;52.210;5.160;2022-09-09T05:31:31;100644.13;;;16.35;73.71
66524;BME280;53350;52.210;5.160;2022-09-09T05:33:58;100642.38;;;16.36;73.73
66524;BME280;53350;52.210;5.160;2022-09-09T05:36:24;100643.97;;;16.40;74.09
66524;BME280;53350;52.210;5.160;2022-09-09T05:38:50;100645.63;;;16.41;74.15
66524;BME280;53350;52.210;5.160;2022-09-09T05:41:18;100636.03;;;16.43;74.02
66524;BME280;53350;52.210;5.160;2022-09-09T05:43:45;100630.66;;;16.47;74.15
66524;BME280;53350;52.210;5.160;2022-09-09T05:46:14;100622.97;;;16.44;74.11
66524;BME280;53350;52.210;5.160;2022-09-09T05:48:41;100621.16;;;16.46;74.37
66524;BME280;53350;52.210;5.160;2022-09-09T05:51:09;100630.91;;;16.41;74.05
66524;BME280;53350;52.210;5.160;2022-09-09T05:53:35;100634.59;;;16.36;74.66
66524;BME280;53350;52.210;5.160;2022-09-09T05:56:02;100640.75;;;16.33;74.39
66524;BME280;53350;52.210;5.160;2022-09-09T05:58:29;100640.81;;;16.31;75.29
66524;BME280;53350;52.210;5.160;2022-09-09T06:01:02;100638.91;;;16.35;75.05
66524;BME280;53350;52.210;5.160;2022-09-09T06:03:30;100652.53;;;16.42;75.24
66524;BME280;53350;52.210;5.160;2022-09-09T06:05:57;100641.88;;;16.48;75.25
66524;BME280;53350;52.210;5.160;2022-09-09T06:08:23;100639.13;;;16.52;75.13
66524;BME280;53350;52.210;5.160;2022-09-09T06:10:50;100639.88;;;16.55;74.92
66524;BME280;53350;52.210;5.160;2022-09-09T06:13:17;100636.25;;;16.59;75.11
66524;BME280;53350;52.210;5.160;2022-09-09T06:15:48;100637.69;;;16.66;75.09
66524;BME280;53350;52.210;5.160;2022-09-09T06:18:15;100633.41;;;16.65;74.87
66524;BME280;53350;52.210;5.160;2022-09-09T06:20:53;100638.41;;;16.69;75.24
66524;BME280;53350;52.210;5.160;2022-09-09T06:23:20;100636.47;;;16.75;75.29
66524;BME280;53350;52.210;5.160;2022-09-09T06:25:46;100634.59;;;16.78;75.06
66524;BME280;53350;52.210;5.160;2022-09-09T06:28:14;100637.97;;;16.80;75.26
66524;BME280;53350;52.210;5.160;2022-09-09T06:30:40;100640.31;;;16.86;75.35
66524;BME280;53350;52.210;5.160;2022-09-09T06:33:06;100630.28;;;16.99;75.19
66524;BME280;53350;52.210;5.160;2022-09-09T06:35:33;100636.00;;;17.08;75.04
66524;BME280;53350;52.210;5.160;2022-09-09T06:38:00;100629.75;;;17.12;75.23
66524;BME280;53350;52.210;5.160;2022-09-09T06:40:27;100632.22;;;17.15;75.11
66524;BME280;53350;52.210;5.160;2022-09-09T06:42:53;100633.97;;;17.14;75.29
66524;BME280;53350;52.210;5.160;2022-09-09T06:45:19;100626.03;;;17.17;75.12
66524;BME280;53350;52.210;5.160;2022-09-09T06:47:45;100623.81;;;17.29;75.11
66524;BME280;53350;52.210;5.160;2022-09-09T06:50:12;100627.75;;;17.37;74.90
66524;BME280;53350;52.210;5.160;2022-09-09T06:52:39;100631.03;;;17.43;75.17
66524;BME280;53350;52.210;5.160;2022-09-09T06:55:07;100629.91;;;17.48;74.64
66524;BME280;53350;52.210;5.160;2022-09-09T06:57:34;100632.59;;;17.47;74.69
66524;BME280;53350;52.210;5.160;2022-09-09T07:00:00;100630.16;;;17.42;74.86
66524;BME280;53350;52.210;5.160;2022-09-09T07:02:27;100629.25;;;17.43;74.41
66524;BME280;53350;52.210;5.160;2022-09-09T07:04:53;100640.25;;;17.50;74.35
66524;BME280;53350;52.210;5.160;2022-09-09T07:07:19;100633.94;;;17.55;74.22
66524;BME280;53350;52.210;5.160;2022-09-09T07:09:45;100642.38;;;17.61;75.25
66524;BME280;53350;52.210;5.160;2022-09-09T07:12:13;100641.81;;;17.73;74.49
66524;BME280;53350;52.210;5.160;2022-09-09T07:14:39;100636.09;;;17.84;74.48
66524;BME280;53350;52.210;5.160;2022-09-09T07:17:06;100635.44;;;17.99;73.87
66524;BME280;53350;52.210;5.160;2022-09-09T07:19:32;100634.31;;;18.05;73.68
66524;BME280;53350;52.210;5.160;2022-09-09T07:21:59;100634.78;;;18.13;73.47
66524;BME280;53350;52.210;5.160;2022-09-09T07:24:27;100637.25;;;18.16;73.78
66524;BME280;53350;52.210;5.160;2022-09-09T07:26:55;100625.63;;;18.23;73.23
66524;BME280;53350;52.210;5.160;2022-09-09T07:29:22;100637.78;;;18.23;73.39
66524;BME280;53350;52.210;5.160;2022-09-09T07:31:48;100635.03;;;18.26;73.22
66524;BME280;53350;52.210;5.160;2022-09-09T07:34:15;100641.56;;;18.35;73.13
66524;BME280;53350;52.210;5.160;2022-09-09T07:36:41;100635.28;;;18.39;72.99
66524;BME280;53350;52.210;5.160;2022-09-09T07:39:08;100633.47;;;18.41;72.58
66524;BME280;53350;52.210;5.160;2022-09-09T07:41:36;100636.78;;;18.45;72.30
66524;BME280;53350;52.210;5.160;2022-09-09T07:44:04;100636.00;;;18.42;72.28
66524;BME280;53350;52.210;5.160;2022-09-09T07:46:33;100633.63;;;18.38;72.28
66524;BME280;53350;52.210;5.160;2022-09-09T07:49:00;100640.81;;;18.33;72.07
66524;BME280;53350;52.210;5.160;2022-09-09T07:51:28;100642.59;;;18.32;71.98
66524;BME280;53350;52.210;5.160;2022-09-09T07:53:55;100630.50;;;18.49;71.77
66524;BME280;53350;52.210;5.160;2022-09-09T07:56:22;100638.56;;;18.62;71.79
66524;BME280;53350;52.210;5.160;2022-09-09T07:58:49;100633.88;;;18.68;71.52
66524;BME280;53350;52.210;5.160;2022-09-09T08:01:16;100639.63;;;18.75;71.37
66524;BME280;53350;52.210;5.160;2022-09-09T08:03:44;100639.56;;;18.76;70.79
66524;BME280;53350;52.210;5.160;2022-09-09T08:06:11;100639.47;;;18.78;70.44
66524;BME280;53350;52.210;5.160;2022-09-09T08:08:39;100634.66;;;18.70;70.63
66524;BME280;53350;52.210;5.160;2022-09-09T08:11:07;100637.81;;;18.77;70.60
66524;BME280;53350;52.210;5.160;2022-09-09T08:13:34;100644.53;;;18.81;70.52
66524;BME280;53350;52.210;5.160;2022-09-09T08:16:04;100633.97;;;18.84;70.58
66524;BME280;53350;52.210;5.160;2022-09-09T08:18:30;100634.75;;;18.86;70.41
66524;BME280;53350;52.210;5.160;2022-09-09T08:20:58;100639.50;;;18.96;69.84
66524;BME280;53350;52.210;5.160;2022-09-09T08:23:30;100639.91;;;18.88;69.89
66524;BME280;53350;52.210;5.160;2022-09-09T08:26:02;100640.66;;;18.90;69.70
66524;BME280;53350;52.210;5.160;2022-09-09T08:28:29;100642.13;;;18.96;69.26
66524;BME280;53350;52.210;5.160;2022-09-09T08:30:56;100634.19;;;18.97;69.44
66524;BME280;53350;52.210;5.160;2022-09-09T08:33:22;100639.28;;;19.00;69.61
66524;BME280;53350;52.210;5.160;2022-09-09T08:35:50;100642.41;;;19.07;69.20
66524;BME280;53350;52.210;5.160;2022-09-09T08:38:18;100646.56;;;19.11;69.30
66524;BME280;53350;52.210;5.160;2022-09-09T08:40:45;100643.47;;;19.20;69.05
66524;BME280;53350;52.210;5.160;2022-09-09T08:43:14;100649.16;;;19.28;68.67
66524;BME280;53350;52.210;5.160;2022-09-09T08:45:43;100646.16;;;19.19;68.27
66524;BME280;53350;52.210;5.160;2022-09-09T08:48:17;100650.31;;;19.23;68.22
66524;BME280;53350;52.210;5.160;2022-09-09T08:50:46;100648.59;;;19.22;68.09
66524;BME280;53350;52.210;5.160;2022-09-09T08:53:16;100654.25;;;19.14;68.04
66524;BME280;53350;52.210;5.160;2022-09-09T08:55:47;100657.06;;;19.27;67.96
66524;BME280;53350;52.210;5.160;2022-09-09T08:58:15;100650.59;;;19.34;67.31
66524;BME280;53350;52.210;5.160;2022-09-09T09:00:44;100653.28;;;19.33;67.16
66524;BME280;53350;52.210;5.160;2022-09-09T09:03:15;100661.44;;;19.26;67.17
66524;BME280;53350;52.210;5.160;2022-09-09T09:05:46;100660.38;;;19.13;67.61
66524;BME280;53350;52.210;5.160;2022-09-09T09:08:16;100665.47;;;19.16;67.78
66524;BME280;53350;52.210;5.160;2022-09-09T09:10:46;100660.84;;;19.21;67.54
66524;BME280;53350;52.210;5.160;2022-09-09T09:13:17;100664.00;;;19.28;67.40
66524;BME280;53350;52.210;5.160;2022-09-09T09:15:46;100664.44;;;19.19;68.41
66524;BME280;53350;52.210;5.160;2022-09-09T09:18:19;100656.41;;;19.23;67.79
66524;BME280;53350;52.210;5.160;2022-09-09T09:20:49;100666.50;;;19.29;67.49
66524;BME280;53350;52.210;5.160;2022-09-09T09:23:19;100657.97;;;19.26;67.67
66524;BME280;53350;52.210;5.160;2022-09-09T09:25:48;100670.75;;;19.32;66.97
66524;BME280;53350;52.210;5.160;2022-09-09T09:28:17;100677.03;;;19.28;67.34
66524;BME280;53350;52.210;5.160;2022-09-09T09:30:44;100671.19;;;19.23;67.48
66524;BME280;53350;52.210;5.160;2022-09-09T09:33:14;100669.50;;;19.22;67.53
66524;BME280;53350;52.210;5.160;2022-09-09T09:35:42;100667.66;;;19.24;67.40
66524;BME280;53350;52.210;5.160;2022-09-09T09:38:11;100662.38;;;19.25;67.53
66524;BME280;53350;52.210;5.160;2022-09-09T09:40:49;100669.50;;;19.22;67.62
66524;BME280;53350;52.210;5.160;2022-09-09T09:43:18;100668.81;;;19.18;67.91
66524;BME280;53350;52.210;5.160;2022-09-09T09:45:46;100666.13;;;19.20;67.68
66524;BME280;53350;52.210;5.160;2022-09-09T09:48:13;100666.97;;;19.20;67.75
66524;BME280;53350;52.210;5.160;2022-09-09T09:50:46;100667.66;;;19.24;67.93
66524;BME280;53350;52.210;5.160;2022-09-09T09:53:16;100670.28;;;19.24;67.81
66524;BME280;53350;52.210;5.160;2022-09-09T09:55:46;100671.91;;;19.26;68.21
66524;BME280;53350;52.210;5.160;2022-09-09T09:58:17;100670.59;;;19.18;69.75
66524;BME280;53350;52.210;5.160;2022-09-09T10:00:47;100673.06;;;19.21;69.48
66524;BME280;53350;52.210;5.160;2022-09-09T10:03:18;100670.44;;;19.21;69.06
66524;BME280;53350;52.210;5.160;2022-09-09T10:05:46;100665.47;;;19.16;69.99
66524;BME280;53350;52.210;5.160;2022-09-09T10:08:13;100667.91;;;19.19;69.30
66524;BME280;53350;52.210;5.160;2022-09-09T10:10:51;100664.69;;;19.14;70.03
66524;BME280;53350;52.210;5.160;2022-09-09T10:13:23;100666.97;;;19.20;69.79
66524;BME280;53350;52.210;5.160;2022-09-09T10:15:54;100666.69;;;19.26;69.71
66524;BME280;53350;52.210;5.160;2022-09-09T10:18:25;100662.56;;;19.38;69.11
66524;BME280;53350;52.210;5.160;2022-09-09T10:21:02;100662.25;;;19.44;69.38
66524;BME280;53350;52.210;5.160;2022-09-09T10:23:34;100663.38;;;19.56;68.80
66524;BME280;53350;52.210;5.160;2022-09-09T10:26:21;100669.38;;;19.58;68.78
66524;BME280;53350;52.210;5.160;2022-09-09T10:29:03;100671.81;;;19.61;69.09
66524;BME280;53350;52.210;5.160;2022-09-09T10:31:36;100679.47;;;19.49;71.49
66524;BME280;53350;52.210;5.160;2022-09-09T10:34:11;100672.53;;;19.48;70.72
66524;BME280;53350;52.210;5.160;2022-09-09T10:36:43;100672.63;;;19.46;71.45
66524;BME280;53350;52.210;5.160;2022-09-09T10:39:18;100672.88;;;19.41;71.85
66524;BME280;53350;52.210;5.160;2022-09-09T10:41:50;100665.66;;;19.46;73.71
66524;BME280;53350;52.210;5.160;2022-09-09T10:44:32;100664.06;;;19.60;72.40
66524;BME280;53350;52.210;5.160;2022-09-09T10:47:09;100658.09;;;19.74;72.98
66524;BME280;53350;52.210;5.160;2022-09-09T10:49:47;100653.78;;;19.90;72.68
66524;BME280;53350;52.210;5.160;2022-09-09T10:52:17;100649.47;;;20.05;72.64
66524;BME280;53350;52.210;5.160;2022-09-09T10:54:49;100653.25;;;20.15;72.41
66524;BME280;53350;52.210;5.160;2022-09-09T10:57:22;100653.84;;;20.21;71.55
66524;BME280;53350;52.210;5.160;2022-09-09T10:59:52;100653.94;;;20.19;71.29
66524;BME280;53350;52.210;5.160;2022-09-09T11:02:22;100651.06;;;20.24;71.02
66524;BME280;53350;52.210;5.160;2022-09-09T11:04:53;100657.03;;;20.10;72.33
66524;BME280;53350;52.210;5.160;2022-09-09T11:07:24;100644.91;;;20.09;71.89
66524;BME280;53350;52.210;5.160;2022-09-09T11:09:52;100643.31;;;20.22;71.05
66524;BME280;53350;52.210;5.160;2022-09-09T11:12:24;100647.69;;;20.06;71.08
66524;BME280;53350;52.210;5.160;2022-09-09T11:14:53;100652.59;;;20.12;70.89
66524;BME280;53350;52.210;5.160;2022-09-09T11:17:23;100645.22;;;20.19;71.01
66524;BME280;53350;52.210;5.160;2022-09-09T11:19:50;100650.53;;;20.17;70.39
66524;BME280;53350;52.210;5.160;2022-09-09T11:22:18;100650.91;;;20.11;70.17
66524;BME280;53350;52.210;5.160;2022-09-09T11:24:49;100646.84;;;20.21;69.79
66524;BME280;53350;52.210;5.160;2022-09-09T11:27:18;100651.47;;;20.00;69.69
66524;BME280;53350;52.210;5.160;2022-09-09T11:30:04;100644.75;;;19.96;69.77
66524;BME280;53350;52.210;5.160;2022-09-09T11:32:39;100641.19;;;19.97;69.95
66524;BME280;53350;52.210;5.160;2022-09-09T11:35:17;100643.81;;;19.97;70.29
66524;BME280;53350;52.210;5.160;2022-09-09T11:37:52;100641.19;;;19.97;71.01
66524;BME280;53350;52.210;5.160;2022-09-09T11:40:21;100639.75;;;20.07;70.40
66524;BME280;53350;52.210;5.160;2022-09-09T11:43:00;100633.19;;;20.16;70.06
66524;BME280;53350;52.210;5.160;2022-09-09T11:45:28;100634.59;;;20.22;69.57
66524;BME280;53350;52.210;5.160;2022-09-09T11:47:56;100630.06;;;20.25;69.86
66524;BME280;53350;52.210;5.160;2022-09-09T11:50:29;100631.38;;;20.32;69.44
66524;BME280;53350;52.210;5.160;2022-09-09T11:53:15;100633.81;;;20.36;69.44
66524;BME280;53350;52.210;5.160;2022-09-09T11:55:45;100631.47;;;20.31;69.50
66524;BME280;53350;52.210;5.160;2022-09-09T11:58:15;100641.44;;;20.24;70.00
66524;BME280;53350;52.210;5.160;2022-09-09T12:00:44;100636.81;;;20.13;69.75
66524;BME280;53350;52.210;5.160;2022-09-09T12:05:52;100644.22;;;19.89;70.15
66524;BME280;53350;52.210;5.160;2022-09-09T12:08:21;100648.31;;;19.77;70.64
66524;BME280;53350;52.210;5.160;2022-09-09T12:10:53;100650.50;;;19.69;71.58
66524;BME280;53350;52.210;5.160;2022-09-09T12:13:20;100644.91;;;19.59;73.78
66524;BME280;53350;52.210;5.160;2022-09-09T12:15:50;100642.38;;;19.58;73.64
66524;BME280;53350;52.210;5.160;2022-09-09T12:18:21;100646.19;;;19.68;72.73
66524;BME280;53350;52.210;5.160;2022-09-09T12:20:51;100642.50;;;19.72;72.95
66524;BME280;53350;52.210;5.160;2022-09-09T12:23:27;100645.88;;;19.74;73.09
66524;BME280;53350;52.210;5.160;2022-09-09T12:28:44;100639.44;;;19.82;73.18
66524;BME280;53350;52.210;5.160;2022-09-09T12:31:14;100639.84;;;19.90;72.93
66524;BME280;53350;52.210;5.160;2022-09-09T12:33:44;100637.31;;;20.04;72.88
66524;BME280;53350;52.210;5.160;2022-09-09T12:36:13;100648.09;;;20.14;72.62
66524;BME280;53350;52.210;5.160;2022-09-09T12:38:41;100638.06;;;20.22;71.93
66524;BME280;53350;52.210;5.160;2022-09-09T12:41:15;100631.88;;;20.23;71.08
66524;BME280;53350;52.210;5.160;2022-09-09T12:43:45;100632.84;;;20.06;70.91
66524;BME280;53350;52.210;5.160;2022-09-09T12:46:24;100637.13;;;20.07;70.46
66524;BME280;53350;52.210;5.160;2022-09-09T12:48:56;100634.13;;;19.99;70.67
66524;BME280;53350;52.210;5.160;2022-09-09T12:51:24;100627.38;;;19.95;70.66
66524;BME280;53350;52.210;5.160;2022-09-09T12:53:51;100634.38;;;19.94;70.44
66524;BME280;53350;52.210;5.160;2022-09-09T12:56:18;100634.22;;;19.97;69.96
66524;BME280;53350;52.210;5.160;2022-09-09T12:58:46;100631.34;;;20.02;70.61
66524;BME280;53350;52.210;5.160;2022-09-09T13:01:18;100622.78;;;19.98;70.06
66524;BME280;53350;52.210;5.160;2022-09-09T13:03:46;100627.19;;;19.98;70.51
66524;BME280;53350;52.210;5.160;2022-09-09T13:06:19;100631.16;;;20.05;69.77
66524;BME280;53350;52.210;5.160;2022-09-09T13:08:47;100625.31;;;20.00;70.05